Time;durP1;ratioP1;P1;durP2;ratioP2;P2;SDS_P1;SDS_P2;PMS_P1;PMS_P2;Temp;Humidity;BMP_temperature;BMP_pressure;BME280_temperature;BME280_humidity;BME280_pressure;Samples;Min_cycle;Max_cycle;Signal;HPM_P1;HPM_P2
2021/03/18 00:01:55;;;;;;;18.50;7.47;;;;;;;2.57;68.21;98754.52;1650891;87;21382;-71
2021/03/18 00:04:22;;;;;;;21.57;7.80;;;;;;;2.61;68.15;98753.79;1673248;84;21189;-70
2021/03/18 00:06:50;;;;;;;21.15;7.37;;;;;;;2.67;67.84;98751.46;1652207;85;21220;-70
2021/03/18 00:09:19;;;;;;;15.45;7.28;;;;;;;2.63;67.92;98749.50;1650926;87;21185;-70
2021/03/18 00:11:49;;;;;;;19.70;7.17;;;;;;;2.57;68.12;98753.17;1682703;85;21127;-70
2021/03/18 00:14:20;;;;;;;17.60;6.75;;;;;;;2.51;68.20;98750.39;1662871;85;21263;-70
2021/03/18 00:16:49;;;;;;;14.50;6.05;;;;;;;2.50;68.15;98749.30;1696247;84;21168;-69
2021/03/18 00:19:18;;;;;;;14.83;5.50;;;;;;;2.63;67.83;98754.34;1698068;83;21210;-71
2021/03/18 00:21:48;;;;;;;19.00;6.67;;;;;;;2.63;67.71;98751.66;1696788;83;21157;-70
2021/03/18 00:24:16;;;;;;;15.30;6.05;;;;;;;2.58;67.86;98754.81;1720369;82;21165;-72
2021/03/18 00:26:44;;;;;;;20.57;5.80;;;;;;;2.53;67.79;98743.96;1720353;83;21213;-71
2021/03/18 00:29:12;;;;;;;14.93;5.78;;;;;;;2.49;67.66;98740.42;1720210;82;21207;-71
2021/03/18 00:31:41;;;;;;;15.00;6.03;;;;;;;2.50;67.52;98740.72;1696871;83;21193;-72
2021/03/18 00:34:09;;;;;;;20.08;6.15;;;;;;;2.45;67.57;98743.31;1649282;87;21145;-71
2021/03/18 00:36:37;;;;;;;18.35;6.20;;;;;;;2.54;67.55;98742.91;1663943;86;21202;-71
2021/03/18 00:39:08;;;;;;;19.73;6.25;;;;;;;2.62;67.08;98740.65;1667372;86;21175;-71
2021/03/18 00:41:36;;;;;;;14.13;5.97;;;;;;;2.60;67.30;98743.27;1685895;84;21303;-71
2021/03/18 00:44:05;;;;;;;15.65;5.60;;;;;;;2.57;67.24;98739.73;1650685;86;21225;-70
2021/03/18 00:46:32;;;;;;;12.80;5.30;;;;;;;2.53;67.30;98746.13;1654849;86;21322;-71
2021/03/18 00:49:00;;;;;;;12.70;5.40;;;;;;;2.57;67.23;98746.45;1693356;84;21642;-71
2021/03/18 00:51:28;;;;;;;13.53;4.40;;;;;;;2.61;67.23;98743.56;1659526;86;21325;-69
2021/03/18 00:53:56;;;;;;;17.25;6.58;;;;;;;2.55;67.17;98744.00;1667881;86;21627;-71
2021/03/18 00:56:24;;;;;;;14.70;5.42;;;;;;;2.51;67.42;98750.94;1682702;84;21178;-71
2021/03/18 00:58:54;;;;;;;13.78;4.55;;;;;;;2.48;67.52;98746.84;1695294;84;21191;-70
2021/03/18 01:01:25;;;;;;;11.53;4.83;;;;;;;2.55;67.35;98753.95;1636895;84;21330;-70
2021/03/18 01:03:52;;;;;;;18.52;5.47;;;;;;;2.66;66.94;98745.00;1666371;86;21661;-70
2021/03/18 01:06:28;;;;;;;13.72;5.62;;;;;;;2.67;67.06;98747.95;1684857;84;21655;-70
2021/03/18 01:08:58;;;;;;;14.23;4.85;;;;;;;2.61;67.06;98743.56;1673606;84;21175;-69
2021/03/18 01:11:30;;;;;;;13.10;4.87;;;;;;;2.56;67.32;98744.81;1695517;84;21203;-69
2021/03/18 01:14:01;;;;;;;14.53;5.90;;;;;;;2.51;67.39;98746.36;1695695;84;21187;-70
2021/03/18 01:16:32;;;;;;;19.07;5.20;;;;;;;2.48;67.45;98738.78;1654973;86;21187;-70
2021/03/18 01:19:06;;;;;;;11.85;5.33;;;;;;;2.48;67.55;98748.72;1687711;84;21196;-70
2021/03/18 01:21:46;;;;;;;15.65;5.85;;;;;;;2.46;67.67;98745.47;1693816;84;21613;-70
2021/03/18 01:24:14;;;;;;;12.75;5.65;;;;;;;2.44;67.75;98745.70;1682281;84;21197;-69
2021/03/18 01:26:43;;;;;;;16.37;5.53;;;;;;;2.45;67.81;98739.28;1690171;81;21172;-69
2021/03/18 01:29:11;;;;;;;11.05;5.20;;;;;;;2.58;67.60;98744.06;1683645;80;21207;-71
2021/03/18 01:31:41;;;;;;;13.25;5.37;;;;;;;2.59;67.48;98744.36;1688280;84;21180;-69
2021/03/18 01:34:09;;;;;;;13.18;5.30;;;;;;;2.54;67.53;98749.11;1685271;84;21202;-69
2021/03/18 01:36:39;;;;;;;12.60;4.97;;;;;;;2.49;67.71;98749.83;1676648;84;21189;-69
2021/03/18 01:39:06;;;;;;;15.13;5.08;;;;;;;2.43;67.89;98748.65;1670520;85;21188;-70
2021/03/18 01:41:34;;;;;;;10.08;4.78;;;;;;;2.44;67.88;98746.26;1658462;85;21322;-70
2021/03/18 01:44:03;;;;;;;13.62;5.15;;;;;;;2.49;67.66;98742.30;1675580;85;21250;-71
2021/03/18 01:46:31;;;;;;;13.50;5.10;;;;;;;2.42;67.67;98739.77;1658671;85;21841;-71
2021/03/18 01:49:00;;;;;;;15.08;5.03;;;;;;;2.38;67.87;98733.77;1653792;85;21768;-72
2021/03/18 01:51:27;;;;;;;15.43;5.35;;;;;;;2.35;67.91;98737.77;1655121;85;21653;-71
2021/03/18 01:53:55;;;;;;;12.07;4.80;;;;;;;2.36;67.65;98739.41;1652491;85;21191;-72
2021/03/18 01:56:23;;;;;;;16.57;4.47;;;;;;;2.43;67.49;98743.27;1652577;85;21180;-70
2021/03/18 01:58:50;;;;;;;11.20;4.87;;;;;;;2.37;67.56;98745.59;1648857;85;21781;-71
2021/03/18 02:01:19;;;;;;;10.80;3.85;;;;;;;2.30;67.80;98740.36;1630913;87;21728;-71
2021/03/18 02:03:47;;;;;;;11.70;4.50;;;;;;;2.31;67.88;98744.68;1683658;84;21193;-71
2021/03/18 02:06:15;;;;;;;11.53;4.17;;;;;;;2.40;67.69;98746.45;1700620;84;21617;-71
2021/03/18 02:08:45;;;;;;;15.75;4.60;;;;;;;2.35;67.68;98747.17;1699252;84;21161;-71
2021/03/18 02:11:12;;;;;;;17.23;5.30;;;;;;;2.31;67.84;98741.99;1672328;84;21578;-71
2021/03/18 02:13:40;;;;;;;12.43;4.65;;;;;;;2.28;67.96;98741.66;1676958;84;21324;-71
2021/03/18 02:16:12;;;;;;;13.98;5.10;;;;;;;2.25;68.09;98741.63;1636480;88;21782;-71
2021/03/18 02:18:52;;;;;;;10.68;3.58;;;;;;;2.29;68.17;98744.64;1650829;86;21191;-72
2021/03/18 02:22:01;;;;;;;11.70;3.98;;;;;;;2.26;68.17;98746.47;1650899;84;21199;-71
2021/03/18 02:25:05;;;;;;;10.20;4.20;;;;;;;2.30;68.12;98748.97;1651460;86;21622;-70
2021/03/18 02:27:46;;;;;;;11.03;4.40;;;;;;;2.30;68.13;98752.44;1648769;85;21143;-69
2021/03/18 02:30:53;;;;;;;9.53;4.58;;;;;;;2.20;68.54;98753.61;1687280;82;21608;-71
2021/03/18 02:33:49;;;;;;;8.55;3.90;;;;;;;2.13;68.90;98752.13;1713534;84;21612;-68
2021/03/18 02:36:21;;;;;;;15.32;4.15;;;;;;;2.13;69.33;98748.09;1674131;83;21172;-71
2021/03/18 02:39:00;;;;;;;12.18;4.17;;;;;;;2.12;69.92;98748.66;1694011;84;21748;-70
2021/03/18 02:41:36;;;;;;;8.48;4.53;;;;;;;2.05;70.36;98757.38;1697511;84;21797;-71
2021/03/18 02:44:09;;;;;;;7.50;3.90;;;;;;;1.98;70.60;98757.50;1711424;83;21448;-70
2021/03/18 02:46:39;;;;;;;7.75;3.85;;;;;;;2.05;70.90;98757.38;1689068;84;21192;-69
2021/03/18 02:49:08;;;;;;;9.45;4.90;;;;;;;2.11;71.38;98756.94;1708660;84;21685;-69
2021/03/18 02:51:37;;;;;;;10.98;4.47;;;;;;;2.06;71.80;98756.30;1714820;83;21318;-70
2021/03/18 02:54:07;;;;;;;9.05;4.62;;;;;;;2.03;72.31;98754.11;1695066;84;21241;-69
2021/03/18 02:56:42;;;;;;;15.25;5.72;;;;;;;1.99;72.86;98758.32;1702011;84;21443;-70
2021/03/18 02:59:11;;;;;;;10.03;4.97;;;;;;;2.06;73.28;98765.70;1710343;84;21337;-70
2021/03/18 03:01:43;;;;;;;11.40;5.72;;;;;;;2.08;73.34;98764.13;1676473;83;21176;-69
2021/03/18 03:04:12;;;;;;;14.03;5.97;;;;;;;2.03;74.01;98759.47;1674434;86;21220;-69
2021/03/18 03:06:41;;;;;;;16.30;5.97;;;;;;;1.96;74.46;98765.52;1682903;84;21326;-70
2021/03/18 03:09:09;;;;;;;11.68;4.90;;;;;;;2.01;74.77;98766.97;1694853;84;21201;-69
2021/03/18 03:11:39;;;;;;;16.52;6.30;;;;;;;2.07;74.95;98763.84;1687993;84;21615;-69
2021/03/18 03:14:08;;;;;;;13.78;5.72;;;;;;;2.00;75.12;98768.83;1678425;84;21182;-69
2021/03/18 03:16:37;;;;;;;11.63;5.87;;;;;;;1.95;75.37;98766.56;1686042;85;21152;-69
2021/03/18 03:19:07;;;;;;;13.28;5.40;;;;;;;2.02;75.77;98763.76;1698116;84;21168;-71
2021/03/18 03:21:34;;;;;;;13.08;5.72;;;;;;;2.12;75.53;98777.37;1645335;86;21152;-70
2021/03/18 03:24:04;;;;;;;19.82;6.78;;;;;;;2.07;75.92;98773.23;1684141;84;21175;-71
2021/03/18 03:26:32;;;;;;;14.15;6.60;;;;;;;1.99;76.29;98777.93;1687015;84;21168;-69
2021/03/18 03:29:00;;;;;;;19.90;7.20;;;;;;;1.95;77.16;98774.09;1649413;84;21148;-70
2021/03/18 03:31:27;;;;;;;13.40;6.10;;;;;;;2.05;77.02;98777.52;1704695;84;21611;-69
2021/03/18 03:33:56;;;;;;;17.87;7.83;;;;;;;2.08;77.01;98782.40;1713532;84;21202;-70
2021/03/18 03:36:24;;;;;;;11.65;6.15;;;;;;;1.95;77.63;98781.33;1714811;83;21620;-69
2021/03/18 03:38:52;;;;;;;18.37;7.37;;;;;;;1.97;77.79;98786.77;1697167;84;21193;-70
2021/03/18 03:41:20;;;;;;;19.48;7.85;;;;;;;2.00;77.99;98778.23;1681994;84;21134;-70
2021/03/18 03:43:47;;;;;;;20.05;7.85;;;;;;;1.90;78.29;98787.43;1705191;82;21351;-69
2021/03/18 03:46:15;;;;;;;14.95;7.25;;;;;;;1.86;78.70;98786.27;1681689;84;21216;-69
2021/03/18 03:48:45;;;;;;;13.00;7.40;;;;;;;1.97;78.42;98787.28;1696590;82;21291;-70
2021/03/18 03:51:13;;;;;;;16.62;7.60;;;;;;;1.97;78.58;98784.60;1632603;88;21212;-69
2021/03/18 03:53:52;;;;;;;16.60;7.90;;;;;;;1.90;78.53;98789.30;1660704;86;21658;-69
2021/03/18 03:56:36;;;;;;;16.52;7.05;;;;;;;1.89;78.69;98791.68;1666622;86;21153;-69
2021/03/18 03:59:10;;;;;;;16.90;7.30;;;;;;;1.90;79.10;98787.95;1697802;82;21768;-70
2021/03/18 04:01:45;;;;;;;16.20;8.50;;;;;;;1.84;79.13;98795.63;1697921;84;21229;-68
2021/03/18 04:04:28;;;;;;;16.70;7.90;;;;;;;1.77;79.35;98794.39;1702028;82;21122;-70
2021/03/18 04:07:01;;;;;;;17.65;8.23;;;;;;;1.77;79.65;98789.02;1703174;83;21672;-70
2021/03/18 04:09:29;;;;;;;15.13;8.28;;;;;;;1.85;79.23;98799.39;1636498;88;21327;-70
2021/03/18 04:11:57;;;;;;;14.33;7.78;;;;;;;1.82;79.28;98795.84;1610800;87;21237;-69
2021/03/18 04:14:31;;;;;;;18.35;8.30;;;;;;;1.78;79.39;98803.26;1647646;87;21189;-69
2021/03/18 04:17:06;;;;;;;16.10;8.25;;;;;;;1.72;79.71;98807.72;1681062;85;21609;-70
2021/03/18 04:19:35;;;;;;;17.35;8.63;;;;;;;1.81;79.58;98802.26;1689754;84;21154;-70
2021/03/18 04:22:03;;;;;;;19.65;8.48;;;;;;;1.87;79.43;98804.02;1696362;84;21767;-70
2021/03/18 04:24:31;;;;;;;17.52;8.63;;;;;;;1.78;79.71;98804.08;1633170;88;21717;-69
2021/03/18 04:26:58;;;;;;;14.28;7.60;;;;;;;1.75;80.04;98806.42;1660308;86;21591;-69
2021/03/18 04:29:26;;;;;;;17.73;7.97;;;;;;;1.84;79.56;98806.36;1644627;86;21207;-69
2021/03/18 04:31:54;;;;;;;16.75;8.20;;;;;;;1.84;79.56;98807.14;1646208;86;21199;-70
2021/03/18 04:34:23;;;;;;;16.80;7.87;;;;;;;1.76;79.97;98806.20;1616490;88;21274;-69
2021/03/18 04:36:51;;;;;;;12.85;7.45;;;;;;;1.79;79.89;98807.06;1617656;87;21331;-69
2021/03/18 04:39:19;;;;;;;17.07;7.85;;;;;;;1.87;79.54;98810.72;1709911;82;21315;-69
2021/03/18 04:41:47;;;;;;;15.23;7.87;;;;;;;1.84;79.58;98806.36;1635755;86;21192;-70
2021/03/18 04:44:14;;;;;;;15.72;7.85;;;;;;;1.75;79.93;98813.13;1633941;86;21304;-69
2021/03/18 04:46:46;;;;;;;17.70;7.67;;;;;;;1.82;79.68;98814.63;1716356;83;21226;-70
2021/03/18 04:49:16;;;;;;;16.15;8.25;;;;;;;1.88;79.57;98822.25;1715835;83;21198;-70
2021/03/18 04:51:44;;;;;;;15.80;8.25;;;;;;;1.82;79.76;98821.86;1706924;83;21185;-70
2021/03/18 04:54:11;;;;;;;18.85;7.62;;;;;;;1.79;79.78;98830.39;1710928;83;21604;-70
2021/03/18 04:56:45;;;;;;;14.93;7.70;;;;;;;1.90;79.57;98828.21;1705510;83;21644;-71
2021/03/18 04:59:14;;;;;;;15.28;8.45;;;;;;;1.96;79.35;98828.59;1721188;82;21632;-70
2021/03/18 05:01:48;;;;;;;13.22;7.92;;;;;;;1.91;79.43;98825.83;1716819;83;21165;-71
2021/03/18 05:04:17;;;;;;;12.50;6.62;;;;;;;1.89;79.56;98835.44;1674330;83;21974;-70
2021/03/18 05:08:07;;;;;;;18.82;9.45;;;;;;;2.15;78.93;98830.06;1764996;79;23434;-71
2021/03/18 05:10:40;;;;;;;15.68;8.30;;;;;;;2.04;79.03;98834.12;1669796;84;21153;-70
2021/03/18 05:13:10;;;;;;;13.93;7.42;;;;;;;1.99;79.14;98832.95;1684811;84;21325;-70
2021/03/18 05:15:40;;;;;;;13.62;8.43;;;;;;;2.10;78.89;98842.03;1649952;85;21161;-70
2021/03/18 05:18:12;;;;;;;16.05;8.23;;;;;;;2.11;78.87;98841.50;1678460;85;21577;-71
2021/03/18 05:20:45;;;;;;;16.82;7.90;;;;;;;2.05;78.93;98839.27;1700581;84;21453;-71
2021/03/18 05:23:16;;;;;;;15.53;8.60;;;;;;;2.16;78.62;98841.06;1678617;85;21172;-71
2021/03/18 05:25:45;;;;;;;16.10;8.80;;;;;;;2.22;78.54;98840.66;1695495;84;21546;-71
2021/03/18 05:28:13;;;;;;;16.55;8.00;;;;;;;2.17;78.63;98848.59;1680155;84;21169;-70
2021/03/18 05:30:42;;;;;;;15.50;7.65;;;;;;;2.14;78.55;98837.81;1662944;85;21148;-71
2021/03/18 05:33:09;;;;;;;16.57;8.63;;;;;;;2.24;78.24;98856.80;1689363;84;21198;-71
2021/03/18 05:35:42;;;;;;;19.73;7.78;;;;;;;2.24;78.17;98851.44;1700298;84;21540;-69
2021/03/18 05:38:11;;;;;;;17.77;8.80;;;;;;;2.17;78.38;98858.81;1694143;84;21196;-71
2021/03/18 05:40:40;;;;;;;12.93;7.97;;;;;;;2.26;78.26;98859.27;1705587;84;21136;-70
2021/03/18 05:43:07;;;;;;;17.42;8.80;;;;;;;2.32;77.99;98855.61;1699681;84;21613;-71
2021/03/18 05:45:35;;;;;;;17.52;8.73;;;;;;;2.30;78.07;98861.77;1707251;84;21149;-71
2021/03/18 05:48:03;;;;;;;15.98;8.05;;;;;;;2.22;78.08;98857.58;1695409;84;21180;-69
2021/03/18 05:50:32;;;;;;;14.50;7.58;;;;;;;2.37;77.80;98866.46;1710644;84;21221;-71
2021/03/18 05:55:42;;;;;;;12.78;7.87;;;;;;;2.49;77.58;98865.87;1768033;79;23404;-71
2021/03/18 05:58:09;;;;;;;14.58;8.10;;;;;;;2.47;77.74;98867.47;1737550;82;21781;-71
2021/03/18 06:00:38;;;;;;;13.58;7.90;;;;;;;2.62;77.09;98872.31;1719422;83;21176;-70
2021/03/18 06:03:06;;;;;;;11.78;7.45;;;;;;;2.80;76.61;98875.31;1722183;83;21184;-71
2021/03/18 06:05:36;;;;;;;14.65;8.10;;;;;;;2.82;76.46;98880.73;1687191;83;21192;-69
2021/03/18 06:08:04;;;;;;;12.90;7.70;;;;;;;2.84;76.41;98881.81;1720675;83;21142;-69
2021/03/18 06:10:32;;;;;;;16.73;7.92;;;;;;;2.92;75.93;98878.73;1699123;82;21238;-70
2021/03/18 06:13:00;;;;;;;15.32;8.55;;;;;;;3.12;75.36;98887.69;1713789;83;21161;-66
2021/03/18 06:15:27;;;;;;;11.68;7.50;;;;;;;3.10;74.99;98891.95;1706741;83;21214;-66
2021/03/18 06:17:55;;;;;;;16.20;8.63;;;;;;;3.14;75.31;98894.97;1704027;83;21149;-68
2021/03/18 06:20:25;;;;;;;12.30;7.37;;;;;;;3.18;74.31;98895.59;1634241;87;21641;-66
2021/03/18 06:22:52;;;;;;;13.25;7.05;;;;;;;3.27;73.81;98898.14;1668615;85;21624;-66
2021/03/18 06:25:30;;;;;;;12.10;6.90;;;;;;;3.25;73.75;98897.59;1674952;85;21140;-66
2021/03/18 06:28:23;;;;;;;16.23;8.18;;;;;;;3.36;73.74;98896.69;1676062;85;21168;-66
2021/03/18 06:31:13;;;;;;;15.83;7.75;;;;;;;3.51;72.55;98894.73;1660019;85;21153;-64
2021/03/18 06:33:49;;;;;;;12.47;7.20;;;;;;;3.60;72.64;98900.53;1679352;85;21322;-65
2021/03/18 06:36:30;;;;;;;12.98;7.17;;;;;;;3.67;72.47;98895.27;1669359;85;21742;-64
2021/03/18 06:39:16;;;;;;;13.70;7.42;;;;;;;3.87;71.10;98901.45;1655440;85;21182;-65
2021/03/18 06:41:48;;;;;;;12.70;6.90;;;;;;;3.95;69.98;98895.64;1664106;84;21179;-66
2021/03/18 06:44:25;;;;;;;13.68;6.58;;;;;;;3.96;70.54;98904.02;1639658;87;21714;-66
2021/03/18 06:46:54;;;;;;;15.45;7.40;;;;;;;3.99;70.09;98906.20;1640605;86;21183;-68
2021/03/18 06:49:23;;;;;;;12.75;6.55;;;;;;;3.94;70.03;98904.25;1661793;85;21632;-67
2021/03/18 06:52:08;;;;;;;13.38;6.83;;;;;;;3.99;69.57;98902.16;1661561;85;21645;-65
2021/03/18 06:54:43;;;;;;;14.45;7.33;;;;;;;4.02;69.32;98908.39;1626421;87;21228;-68
2021/03/18 06:57:12;;;;;;;13.30;7.00;;;;;;;3.99;69.51;98898.94;1686606;84;21305;-69
2021/03/18 06:59:42;;;;;;;12.30;6.62;;;;;;;3.99;69.35;98902.16;1688850;84;21301;-67
2021/03/18 07:02:14;;;;;;;10.23;6.10;;;;;;;3.97;69.28;98896.20;1697744;84;21589;-67
2021/03/18 07:04:52;;;;;;;13.28;6.28;;;;;;;4.04;68.55;98900.86;1697167;83;21207;-67
2021/03/18 07:07:22;;;;;;;;;;;;;;;4.04;68.20;98892.78;1694561;84;21337;-68
2021/03/18 07:09:55;;;;;;;14.80;7.17;;;;;;;4.00;68.19;98897.07;1671887;84;20281;-68
2021/03/18 07:12:28;;;;;;;9.98;6.30;;;;;;;3.90;69.13;98896.91;1693958;84;21190;-67
2021/03/18 07:17:34;;;;;;;12.07;6.60;;;;;;;4.25;67.61;98898.70;1763266;79;28903;-67
2021/03/18 07:20:19;;;;;;;10.10;6.15;;;;;;;4.55;67.27;98900.14;1719682;82;21187;-67
2021/03/18 07:22:55;;;;;;;10.65;6.40;;;;;;;4.81;65.65;98896.66;1706835;83;21204;-68
2021/03/18 07:25:26;;;;;;;11.00;5.83;;;;;;;4.74;65.61;98899.56;1712800;82;21149;-69
2021/03/18 07:27:57;;;;;;;10.95;5.60;;;;;;;4.73;65.52;98891.18;1695389;83;21588;-66
2021/03/18 07:30:30;;;;;;;14.58;5.70;;;;;;;4.79;65.66;98894.73;1711327;83;21189;-69
2021/03/18 07:32:58;;;;;;;9.58;5.15;;;;;;;4.92;64.65;98898.38;1703301;83;21599;-68
2021/03/18 07:35:27;;;;;;;12.68;5.03;;;;;;;5.03;62.42;98896.59;1714177;82;21216;-67
2021/03/18 07:37:55;;;;;;;14.20;5.62;;;;;;;4.88;62.93;98901.31;1692486;83;21160;-67
2021/03/18 07:40:24;;;;;;;11.97;5.10;;;;;;;4.72;63.59;98901.67;1670804;83;21173;-68
2021/03/18 07:42:52;;;;;;;14.38;5.97;;;;;;;4.63;64.06;98903.73;1700309;83;21189;-67
2021/03/18 07:45:22;;;;;;;11.25;5.35;;;;;;;4.57;63.96;98908.24;1696559;83;21140;-68
2021/03/18 07:47:50;;;;;;;10.03;4.60;;;;;;;4.50;64.22;98912.48;1712672;83;21157;-67
2021/03/18 07:50:23;;;;;;;12.53;5.03;;;;;;;4.47;64.71;98910.83;1644200;87;21626;-68
2021/03/18 07:52:51;;;;;;;9.58;4.70;;;;;;;4.53;64.12;98906.59;1669183;85;21308;-67
2021/03/18 07:55:19;;;;;;;12.82;4.15;;;;;;;4.51;64.12;98906.03;1655217;85;21223;-67
2021/03/18 07:57:50;;;;;;;10.60;4.78;;;;;;;4.30;64.16;98908.22;1656098;85;21671;-66
2021/03/18 08:00:24;;;;;;;17.60;4.70;;;;;;;4.18;65.21;98909.42;1659188;85;21622;-66
2021/03/18 08:02:52;;;;;;;10.30;5.47;;;;;;;4.14;65.72;98909.11;1672771;85;21188;-68
2021/03/18 08:05:48;;;;;;;11.03;4.90;;;;;;;4.11;65.97;98908.79;1654698;85;21212;-67
2021/03/18 08:08:40;;;;;;;14.23;4.85;;;;;;;4.10;66.57;98906.62;1700411;83;21200;-66
2021/03/18 08:11:12;;;;;;;10.63;5.30;;;;;;;4.20;66.43;98900.02;1713169;83;21153;-66
2021/03/18 08:13:41;;;;;;;10.05;5.10;;;;;;;4.22;66.82;98907.30;1715499;83;21177;-67
2021/03/18 08:16:28;;;;;;;10.93;5.17;;;;;;;4.23;66.60;98908.12;1715494;83;21181;-68
2021/03/18 08:18:57;;;;;;;9.78;5.70;;;;;;;4.18;66.74;98906.72;1715953;83;21165;-66
2021/03/18 08:21:48;;;;;;;8.35;4.42;;;;;;;4.06;66.65;98914.91;1704402;83;21165;-66
2021/03/18 08:24:24;;;;;;;14.05;4.90;;;;;;;4.14;66.72;98913.67;1695028;83;21215;-66
2021/03/18 08:27:04;;;;;;;15.05;5.50;;;;;;;4.20;66.05;98911.31;1716369;82;21189;-66
2021/03/18 08:29:41;;;;;;;10.68;5.00;;;;;;;4.16;66.14;98911.53;1679081;85;21164;-67
2021/03/18 08:32:27;;;;;;;15.58;5.53;;;;;;;4.06;66.75;98916.27;1695874;84;21194;-67
2021/03/18 08:34:59;;;;;;;11.48;5.87;;;;;;;3.96;66.91;98914.78;1708541;83;21154;-67
2021/03/18 08:37:43;;;;;;;9.18;4.20;;;;;;;3.82;67.40;98925.09;1703570;82;21185;-67
2021/03/18 08:40:26;;;;;;;10.93;4.67;;;;;;;3.87;67.86;98923.81;1684451;84;21154;-68
2021/03/18 08:43:06;;;;;;;9.03;5.05;;;;;;;3.92;67.80;98924.42;1679765;84;21148;-67
2021/03/18 08:45:36;;;;;;;12.50;5.42;;;;;;;3.82;67.83;98924.28;1703958;84;21311;-67
2021/03/18 08:48:13;;;;;;;8.40;5.25;;;;;;;3.71;68.51;98933.27;1703681;84;21162;-65
2021/03/18 08:50:48;;;;;;;8.50;5.10;;;;;;;3.62;69.30;98932.86;1701798;83;21206;-65
2021/03/18 08:53:33;;;;;;;13.10;5.78;;;;;;;3.79;68.86;98940.38;1660659;85;21180;-67
2021/03/18 08:56:01;;;;;;;13.98;5.22;;;;;;;3.82;68.39;98930.48;1665092;85;21153;-67
2021/03/18 08:58:30;;;;;;;11.73;6.20;;;;;;;3.84;68.72;98936.95;1704479;84;21227;-66
2021/03/18 09:00:58;;;;;;;15.65;5.60;;;;;;;3.92;68.42;98936.53;1659408;84;21193;-67
2021/03/18 09:03:25;;;;;;;10.55;5.03;;;;;;;4.03;67.86;98936.96;1684894;84;21316;-67
2021/03/18 09:05:58;;;;;;;8.20;4.53;;;;;;;4.23;67.80;98939.92;1677850;85;21162;-66
2021/03/18 09:08:35;;;;;;;11.15;5.55;;;;;;;4.21;66.95;98929.94;1650536;87;21133;-67
2021/03/18 09:11:02;;;;;;;9.75;5.00;;;;;;;4.16;67.34;98935.25;1601045;88;21220;-67
2021/03/18 09:13:31;;;;;;;9.30;5.65;;;;;;;4.13;67.63;98937.09;1623109;88;21176;-67
2021/03/18 09:16:01;;;;;;;11.28;4.50;;;;;;;4.19;67.64;98936.09;1640451;87;21294;-67
2021/03/18 09:18:32;;;;;;;9.85;4.47;;;;;;;4.29;66.33;98933.52;1635598;87;21203;-67
2021/03/18 09:21:08;;;;;;;6.90;4.45;;;;;;;4.34;67.08;98938.16;1650749;85;21640;-68
2021/03/18 09:23:39;;;;;;;8.13;4.70;;;;;;;4.39;66.08;98936.33;1646847;87;21334;-68
2021/03/18 09:26:09;;;;;;;11.35;4.70;;;;;;;4.51;65.84;98933.52;1624621;88;21218;-67
2021/03/18 09:28:48;;;;;;;13.43;4.58;;;;;;;4.66;64.84;98936.92;1591708;90;21211;-67
2021/03/18 09:31:23;;;;;;;9.50;4.53;;;;;;;4.73;64.57;98940.24;1648990;87;21207;-66
2021/03/18 09:33:54;;;;;;;13.62;4.58;;;;;;;4.72;63.37;98938.60;1623249;87;21236;-67
2021/03/18 09:36:28;;;;;;;13.30;4.97;;;;;;;4.76;63.90;98932.46;1622419;88;21230;-67
2021/03/18 09:39:09;;;;;;;8.33;4.08;;;;;;;4.76;63.43;98935.69;1617251;88;21593;-66
2021/03/18 09:41:46;;;;;;;11.78;4.30;;;;;;;4.80;63.04;98932.77;1621140;87;21622;-67
2021/03/18 09:44:22;;;;;;;13.48;4.30;;;;;;;4.77;63.71;98941.37;1619867;88;21594;-65
2021/03/18 09:46:54;;;;;;;8.05;4.60;;;;;;;4.66;63.97;98909.44;1630521;87;21584;-66
2021/03/18 09:49:37;;;;;;;8.85;5.17;;;;;;;4.78;63.75;98937.61;1625292;87;21667;-67
2021/03/18 09:52:09;;;;;;;11.35;5.17;;;;;;;4.68;64.71;98949.08;1625479;87;21576;-67
2021/03/18 09:54:38;;;;;;;10.70;4.75;;;;;;;4.66;65.03;98944.48;1624913;87;21690;-66
2021/03/18 09:57:08;;;;;;;11.25;4.78;;;;;;;4.79;64.46;98938.69;1624498;87;21200;-65
2021/03/18 09:59:36;;;;;;;13.40;5.20;;;;;;;4.78;63.94;98944.35;1646707;87;21153;-67
2021/03/18 10:02:05;;;;;;;8.40;4.47;;;;;;;4.70;64.14;98939.41;1650900;86;21229;-69
2021/03/18 10:04:42;;;;;;;12.82;5.50;;;;;;;4.66;65.15;98944.48;1635197;86;21603;-67
2021/03/18 10:07:11;;;;;;;10.45;4.83;;;;;;;4.61;64.47;98943.59;1635175;86;21240;-68
2021/03/18 10:09:42;;;;;;;9.15;4.97;;;;;;;4.59;64.01;98941.17;1690174;84;21171;-70
2021/03/18 10:12:14;;;;;;;11.35;5.00;;;;;;;4.61;64.85;98947.64;1689748;85;21637;-65
2021/03/18 10:15:04;;;;;;;12.15;6.05;;;;;;;4.70;63.62;98933.48;1678284;85;21184;-68
2021/03/18 10:17:38;;;;;;;9.53;5.17;;;;;;;4.79;64.69;98941.39;1663605;85;21160;-67
2021/03/18 10:20:17;;;;;;;9.05;5.00;;;;;;;4.77;64.81;98946.76;1663515;86;21682;-67
2021/03/18 10:23:06;;;;;;;9.23;5.60;;;;;;;4.68;65.39;98946.38;1666511;85;21499;-67
2021/03/18 10:25:35;;;;;;;9.28;5.70;;;;;;;4.69;65.48;98944.50;1645138;87;21194;-66
2021/03/18 10:28:14;;;;;;;9.55;4.87;;;;;;;4.60;65.66;98944.16;1644301;86;21213;-67
2021/03/18 10:30:45;;;;;;;10.35;5.33;;;;;;;4.62;64.64;98952.79;1645272;87;21205;-64
2021/03/18 10:33:23;;;;;;;7.00;5.37;;;;;;;4.59;65.90;98947.09;1641875;87;21180;-64
2021/03/18 10:35:59;;;;;;;9.28;5.55;;;;;;;4.53;66.27;98948.92;1663681;85;21204;-67
2021/03/18 10:38:36;;;;;;;8.93;6.37;;;;;;;4.52;66.88;98952.67;1691129;85;21202;-64
2021/03/18 10:41:09;;;;;;;9.88;7.03;;;;;;;4.40;67.10;98950.09;1691240;84;21191;-67
2021/03/18 10:43:42;;;;;;;7.97;5.50;;;;;;;4.49;66.55;98958.05;1691227;85;21171;-66
2021/03/18 10:46:13;;;;;;;7.85;5.50;;;;;;;4.53;66.30;98949.71;1690618;84;21297;-66
2021/03/18 10:48:40;;;;;;;7.92;5.62;;;;;;;4.51;66.39;98953.20;1691215;85;21191;-67
2021/03/18 10:51:17;;;;;;;9.18;5.83;;;;;;;4.50;66.56;98953.44;1667710;85;21281;-66
2021/03/18 10:53:45;;;;;;;11.60;5.90;;;;;;;4.47;66.31;98952.60;1690992;85;21178;-67
2021/03/18 10:56:25;;;;;;;7.17;5.17;;;;;;;4.48;66.05;98953.71;1676358;84;21329;-67
2021/03/18 10:58:54;;;;;;;9.03;5.25;;;;;;;4.46;65.32;98953.12;1690565;85;21642;-66
2021/03/18 11:01:25;;;;;;;10.03;6.08;;;;;;;4.57;65.59;98961.37;1637174;87;21607;-68
2021/03/18 11:04:07;;;;;;;13.40;5.67;;;;;;;4.57;67.17;98955.41;1678502;84;21143;-68
2021/03/18 11:06:50;;;;;;;9.20;6.75;;;;;;;4.58;67.64;98953.01;1644522;87;21805;-68
2021/03/18 11:09:18;;;;;;;10.20;6.62;;;;;;;4.58;67.87;98953.53;1691076;85;21190;-68
2021/03/18 11:12:00;;;;;;;9.93;6.17;;;;;;;4.61;67.41;98953.03;1685427;85;21632;-68
2021/03/18 11:14:28;;;;;;;10.03;6.70;;;;;;;4.80;67.21;98947.06;1685744;84;21669;-68
2021/03/18 11:17:08;;;;;;;11.55;5.95;;;;;;;4.77;66.74;98947.58;1680841;84;21220;-68
2021/03/18 11:19:37;;;;;;;8.58;5.45;;;;;;;4.71;66.71;98953.17;1665924;85;21170;-69
2021/03/18 11:22:05;;;;;;;8.45;6.10;;;;;;;4.60;66.71;98949.55;1680007;85;21977;-67
2021/03/18 11:24:33;;;;;;;8.00;4.40;;;;;;;4.54;66.74;98943.80;1690986;85;21187;-66
2021/03/18 11:27:05;;;;;;;8.38;5.35;;;;;;;4.53;66.60;98942.71;1690749;84;21224;-66
2021/03/18 11:29:35;;;;;;;6.42;4.15;;;;;;;4.65;65.95;98944.20;1673230;85;21175;-67
2021/03/18 11:32:06;;;;;;;7.60;4.97;;;;;;;4.60;65.49;98944.16;1683254;85;21197;-67
2021/03/18 11:34:37;;;;;;;6.03;4.95;;;;;;;4.48;65.65;98940.23;1643836;87;21610;-68
2021/03/18 11:37:08;;;;;;;9.20;5.15;;;;;;;4.46;66.08;98943.70;1691302;85;21183;-67
2021/03/18 11:39:38;;;;;;;10.03;5.80;;;;;;;4.51;66.42;98941.60;1691216;84;21175;-67
2021/03/18 11:42:05;;;;;;;7.17;4.92;;;;;;;4.51;66.15;98951.03;1678630;84;21211;-66
2021/03/18 11:44:35;;;;;;;5.83;4.70;;;;;;;4.61;65.45;98941.72;1663247;85;21209;-68
2021/03/18 11:47:06;;;;;;;5.40;4.17;;;;;;;4.63;65.50;98946.88;1683664;85;21151;-68
2021/03/18 11:49:36;;;;;;;6.80;4.75;;;;;;;4.64;65.68;98944.47;1690263;84;21132;-69
2021/03/18 11:52:05;;;;;;;6.47;4.12;;;;;;;4.69;65.41;98944.50;1691012;85;21288;-69
2021/03/18 11:54:33;;;;;;;6.00;4.75;;;;;;;4.80;64.96;98947.06;1644237;87;21262;-69
2021/03/18 11:57:03;;;;;;;6.00;4.78;;;;;;;4.87;65.03;98944.98;1691095;84;21610;-68
2021/03/18 11:59:30;;;;;;;5.47;3.87;;;;;;;4.84;65.15;98944.15;1633222;87;21192;-69
2021/03/18 12:01:58;;;;;;;4.45;3.42;;;;;;;4.86;63.88;98943.88;1687295;85;21179;-67
2021/03/18 12:04:26;;;;;;;6.47;3.70;;;;;;;4.83;64.46;98943.86;1684714;85;21192;-67
2021/03/18 12:06:54;;;;;;;5.17;3.92;;;;;;;4.69;64.59;98948.55;1691265;85;21313;-68